sensor_id;sensor_type;location;lat;lon;timestamp;P1;durP1;ratioP1;P2;durP2;ratioP2
6223;SDS011;3145;42.726;23.342;2022-07-25T00:02:24;11.32;;;10.27;;
6223;SDS011;3145;42.726;23.342;2022-07-25T00:04:51;11.93;;;10.82;;
6223;SDS011;3145;42.726;23.342;2022-07-25T00:07:18;11.88;;;10.65;;
6223;SDS011;3145;42.726;23.342;2022-07-25T00:09:44;12.45;;;11.32;;
6223;SDS011;3145;42.726;23.342;2022-07-25T00:12:11;11.68;;;10.57;;
6223;SDS011;3145;42.726;23.342;2022-07-25T00:14:38;11.25;;;10.10;;
6223;SDS011;3145;42.726;23.342;2022-07-25T00:17:06;10.35;;;9.48;;
6223;SDS011;3145;42.726;23.342;2022-07-25T00:19:33;11.50;;;10.38;;
6223;SDS011;3145;42.726;23.342;2022-07-25T00:22:00;10.70;;;9.80;;
6223;SDS011;3145;42.726;23.342;2022-07-25T00:24:27;11.00;;;10.00;;
6223;SDS011;3145;42.726;23.342;2022-07-25T00:26:53;13.45;;;10.20;;
6223;SDS011;3145;42.726;23.342;2022-07-25T00:29:20;12.80;;;10.65;;
6223;SDS011;3145;42.726;23.342;2022-07-25T00:31:47;11.65;;;10.55;;
6223;SDS011;3145;42.726;23.342;2022-07-25T00:34:15;10.65;;;9.65;;
6223;SDS011;3145;42.726;23.342;2022-07-25T00:36:42;11.10;;;10.10;;
6223;SDS011;3145;42.726;23.342;2022-07-25T00:39:09;13.98;;;9.88;;
6223;SDS011;3145;42.726;23.342;2022-07-25T00:41:36;12.50;;;11.10;;
6223;SDS011;3145;42.726;23.342;2022-07-25T00:44:03;12.35;;;10.20;;
6223;SDS011;3145;42.726;23.342;2022-07-25T00:46:30;13.40;;;11.20;;
6223;SDS011;3145;42.726;23.342;2022-07-25T00:48:57;12.32;;;10.85;;
6223;SDS011;3145;42.726;23.342;2022-07-25T00:51:25;12.60;;;10.90;;
6223;SDS011;3145;42.726;23.342;2022-07-25T00:53:51;11.55;;;10.35;;
6223;SDS011;3145;42.726;23.342;2022-07-25T00:56:18;15.48;;;10.85;;
6223;SDS011;3145;42.726;23.342;2022-07-25T00:58:45;11.45;;;10.30;;
6223;SDS011;3145;42.726;23.342;2022-07-25T01:01:12;15.30;;;11.23;;
6223;SDS011;3145;42.726;23.342;2022-07-25T01:03:39;12.43;;;10.80;;
6223;SDS011;3145;42.726;23.342;2022-07-25T01:06:06;11.52;;;10.23;;
6223;SDS011;3145;42.726;23.342;2022-07-25T01:08:34;12.05;;;10.85;;
6223;SDS011;3145;42.726;23.342;2022-07-25T01:11:01;12.10;;;11.00;;
6223;SDS011;3145;42.726;23.342;2022-07-25T01:13:30;14.85;;;12.25;;
6223;SDS011;3145;42.726;23.342;2022-07-25T01:15:57;14.13;;;10.57;;
6223;SDS011;3145;42.726;23.342;2022-07-25T01:18:24;13.27;;;12.05;;
6223;SDS011;3145;42.726;23.342;2022-07-25T01:20:52;11.95;;;10.95;;
6223;SDS011;3145;42.726;23.342;2022-07-25T01:23:19;14.88;;;11.27;;
6223;SDS011;3145;42.726;23.342;2022-07-25T01:25:46;12.48;;;11.10;;
6223;SDS011;3145;42.726;23.342;2022-07-25T01:28:12;13.45;;;12.05;;
6223;SDS011;3145;42.726;23.342;2022-07-25T01:30:39;13.50;;;11.07;;
6223;SDS011;3145;42.726;23.342;2022-07-25T01:33:06;13.50;;;12.20;;
6223;SDS011;3145;42.726;23.342;2022-07-25T01:35:33;13.60;;;11.32;;
6223;SDS011;3145;42.726;23.342;2022-07-25T01:38:01;15.52;;;11.35;;
6223;SDS011;3145;42.726;23.342;2022-07-25T01:40:28;12.80;;;11.60;;
6223;SDS011;3145;42.726;23.342;2022-07-25T01:42:55;13.73;;;12.15;;
6223;SDS011;3145;42.726;23.342;2022-07-25T01:45:21;14.35;;;11.63;;
6223;SDS011;3145;42.726;23.342;2022-07-25T01:47:48;12.30;;;11.10;;
6223;SDS011;3145;42.726;23.342;2022-07-25T01:50:15;15.68;;;11.98;;
6223;SDS011;3145;42.726;23.342;2022-07-25T01:52:42;12.50;;;10.82;;
6223;SDS011;3145;42.726;23.342;2022-07-25T01:55:10;12.85;;;11.65;;
6223;SDS011;3145;42.726;23.342;2022-07-25T01:57:38;14.38;;;11.57;;
6223;SDS011;3145;42.726;23.342;2022-07-25T02:00:06;12.60;;;11.30;;
6223;SDS011;3145;42.726;23.342;2022-07-25T02:02:35;12.52;;;10.90;;
6223;SDS011;3145;42.726;23.342;2022-07-25T02:05:02;20.75;;;12.02;;
6223;SDS011;3145;42.726;23.342;2022-07-25T02:07:29;15.23;;;13.68;;
6223;SDS011;3145;42.726;23.342;2022-07-25T02:09:56;14.35;;;12.43;;
6223;SDS011;3145;42.726;23.342;2022-07-25T02:12:24;14.88;;;12.15;;
6223;SDS011;3145;42.726;23.342;2022-07-25T02:14:51;12.55;;;11.35;;
6223;SDS011;3145;42.726;23.342;2022-07-25T02:17:18;13.07;;;11.77;;
6223;SDS011;3145;42.726;23.342;2022-07-25T02:19:45;14.60;;;11.45;;
6223;SDS011;3145;42.726;23.342;2022-07-25T02:22:11;12.60;;;11.40;;
6223;SDS011;3145;42.726;23.342;2022-07-25T02:24:38;12.13;;;10.38;;
6223;SDS011;3145;42.726;23.342;2022-07-25T02:27:05;12.10;;;10.77;;
6223;SDS011;3145;42.726;23.342;2022-07-25T02:29:33;13.82;;;11.23;;
6223;SDS011;3145;42.726;23.342;2022-07-25T02:32:00;13.15;;;11.73;;
6223;SDS011;3145;42.726;23.342;2022-07-25T02:34:27;13.40;;;10.55;;
6223;SDS011;3145;42.726;23.342;2022-07-25T02:36:54;12.65;;;11.35;;
6223;SDS011;3145;42.726;23.342;2022-07-25T02:39:20;12.15;;;10.95;;
6223;SDS011;3145;42.726;23.342;2022-07-25T02:41:47;13.75;;;12.02;;
6223;SDS011;3145;42.726;23.342;2022-07-25T02:44:14;14.85;;;12.25;;
6223;SDS011;3145;42.726;23.342;2022-07-25T02:46:42;13.07;;;11.75;;
6223;SDS011;3145;42.726;23.342;2022-07-25T02:49:09;14.63;;;11.63;;
6223;SDS011;3145;42.726;23.342;2022-07-25T02:51:36;14.20;;;12.20;;
6223;SDS011;3145;42.726;23.342;2022-07-25T02:54:02;15.35;;;12.68;;
6223;SDS011;3145;42.726;23.342;2022-07-25T02:56:29;15.60;;;11.83;;
6223;SDS011;3145;42.726;23.342;2022-07-25T02:58:57;13.57;;;12.18;;
6223;SDS011;3145;42.726;23.342;2022-07-25T03:01:24;15.67;;;12.50;;
6223;SDS011;3145;42.726;23.342;2022-07-25T03:03:52;13.10;;;11.82;;
6223;SDS011;3145;42.726;23.342;2022-07-25T03:06:19;14.48;;;12.48;;
6223;SDS011;3145;42.726;23.342;2022-07-25T03:08:45;15.40;;;11.50;;
6223;SDS011;3145;42.726;23.342;2022-07-25T03:11:12;14.15;;;11.70;;
6223;SDS011;3145;42.726;23.342;2022-07-25T03:13:40;13.07;;;11.77;;
6223;SDS011;3145;42.726;23.342;2022-07-25T03:16:07;17.60;;;12.60;;
6223;SDS011;3145;42.726;23.342;2022-07-25T03:18:35;13.40;;;12.05;;
6223;SDS011;3145;42.726;23.342;2022-07-25T03:21:03;13.48;;;11.63;;
6223;SDS011;3145;42.726;23.342;2022-07-25T03:23:30;12.23;;;11.02;;
6223;SDS011;3145;42.726;23.342;2022-07-25T03:25:57;12.48;;;11.07;;
6223;SDS011;3145;42.726;23.342;2022-07-25T03:28:24;14.70;;;11.93;;
6223;SDS011;3145;42.726;23.342;2022-07-25T03:30:50;12.88;;;11.55;;
6223;SDS011;3145;42.726;23.342;2022-07-25T03:33:17;14.43;;;12.30;;
6223;SDS011;3145;42.726;23.342;2022-07-25T03:35:44;13.38;;;12.13;;
6223;SDS011;3145;42.726;23.342;2022-07-25T03:38:12;12.60;;;11.50;;
6223;SDS011;3145;42.726;23.342;2022-07-25T03:40:39;15.27;;;10.95;;
6223;SDS011;3145;42.726;23.342;2022-07-25T03:43:06;12.45;;;11.02;;
6223;SDS011;3145;42.726;23.342;2022-07-25T03:45:33;15.25;;;10.85;;
6223;SDS011;3145;42.726;23.342;2022-07-25T03:48:00;15.40;;;11.05;;
6223;SDS011;3145;42.726;23.342;2022-07-25T03:50:27;12.25;;;10.85;;
6223;SDS011;3145;42.726;23.342;2022-07-25T03:52:53;13.88;;;10.82;;
6223;SDS011;3145;42.726;23.342;2022-07-25T03:55:21;11.90;;;10.73;;
6223;SDS011;3145;42.726;23.342;2022-07-25T03:57:48;12.00;;;10.73;;
6223;SDS011;3145;42.726;23.342;2022-07-25T04:00:15;14.47;;;11.23;;
6223;SDS011;3145;42.726;23.342;2022-07-25T04:02:42;16.20;;;10.40;;
6223;SDS011;3145;42.726;23.342;2022-07-25T04:05:09;12.52;;;9.85;;
6223;SDS011;3145;42.726;23.342;2022-07-25T04:07:36;12.10;;;10.30;;
6223;SDS011;3145;42.726;23.342;2022-07-25T04:10:02;10.55;;;9.57;;
6223;SDS011;3145;42.726;23.342;2022-07-25T04:12:31;10.68;;;9.77;;
6223;SDS011;3145;42.726;23.342;2022-07-25T04:14:58;11.50;;;10.50;;
6223;SDS011;3145;42.726;23.342;2022-07-25T04:17:25;10.77;;;9.48;;
6223;SDS011;3145;42.726;23.342;2022-07-25T04:19:52;11.10;;;9.40;;
6223;SDS011;3145;42.726;23.342;2022-07-25T04:22:18;11.95;;;10.02;;
6223;SDS011;3145;42.726;23.342;2022-07-25T04:24:45;10.43;;;9.50;;
6223;SDS011;3145;42.726;23.342;2022-07-25T04:27:12;12.38;;;9.23;;
6223;SDS011;3145;42.726;23.342;2022-07-25T04:29:40;11.43;;;10.35;;
6223;SDS011;3145;42.726;23.342;2022-07-25T04:32:07;15.32;;;8.60;;
6223;SDS011;3145;42.726;23.342;2022-07-25T04:34:33;10.05;;;9.15;;
6223;SDS011;3145;42.726;23.342;2022-07-25T04:37:00;9.90;;;9.05;;
6223;SDS011;3145;42.726;23.342;2022-07-25T04:39:27;13.70;;;9.50;;
6223;SDS011;3145;42.726;23.342;2022-07-25T04:41:54;10.73;;;8.90;;
6223;SDS011;3145;42.726;23.342;2022-07-25T04:44:20;10.55;;;9.45;;
6223;SDS011;3145;42.726;23.342;2022-07-25T04:46:48;11.35;;;9.20;;
6223;SDS011;3145;42.726;23.342;2022-07-25T04:49:15;10.20;;;9.25;;
6223;SDS011;3145;42.726;23.342;2022-07-25T04:51:42;11.30;;;9.48;;
6223;SDS011;3145;42.726;23.342;2022-07-25T04:54:08;10.10;;;9.05;;
6223;SDS011;3145;42.726;23.342;2022-07-25T04:56:35;9.88;;;8.98;;
6223;SDS011;3145;42.726;23.342;2022-07-25T04:59:02;9.93;;;8.88;;
6223;SDS011;3145;42.726;23.342;2022-07-25T05:01:29;10.82;;;9.93;;
6223;SDS011;3145;42.726;23.342;2022-07-25T05:03:57;14.02;;;8.45;;
6223;SDS011;3145;42.726;23.342;2022-07-25T05:06:24;10.35;;;9.40;;
6223;SDS011;3145;42.726;23.342;2022-07-25T05:08:50;9.38;;;8.68;;
6223;SDS011;3145;42.726;23.342;2022-07-25T05:11:17;10.60;;;9.48;;
6223;SDS011;3145;42.726;23.342;2022-07-25T05:13:44;8.98;;;8.20;;
6223;SDS011;3145;42.726;23.342;2022-07-25T05:16:10;10.48;;;9.65;;
6223;SDS011;3145;42.726;23.342;2022-07-25T05:18:37;13.20;;;9.50;;
6223;SDS011;3145;42.726;23.342;2022-07-25T05:21:08;10.45;;;9.45;;
6223;SDS011;3145;42.726;23.342;2022-07-25T05:23:35;10.13;;;9.23;;
6223;SDS011;3145;42.726;23.342;2022-07-25T05:26:02;10.85;;;8.52;;
6223;SDS011;3145;42.726;23.342;2022-07-25T05:28:28;8.85;;;8.23;;
6223;SDS011;3145;42.726;23.342;2022-07-25T05:30:55;9.27;;;8.45;;
6223;SDS011;3145;42.726;23.342;2022-07-25T05:33:22;10.38;;;9.32;;
6223;SDS011;3145;42.726;23.342;2022-07-25T05:35:50;9.23;;;8.48;;
6223;SDS011;3145;42.726;23.342;2022-07-25T05:38:19;14.50;;;8.55;;
6223;SDS011;3145;42.726;23.342;2022-07-25T05:40:45;10.45;;;8.90;;
6223;SDS011;3145;42.726;23.342;2022-07-25T05:43:13;10.25;;;9.25;;
6223;SDS011;3145;42.726;23.342;2022-07-25T05:45:39;9.75;;;8.85;;
6223;SDS011;3145;42.726;23.342;2022-07-25T05:48:06;9.20;;;8.20;;
6223;SDS011;3145;42.726;23.342;2022-07-25T05:50:33;13.98;;;8.48;;
6223;SDS011;3145;42.726;23.342;2022-07-25T05:53:01;11.18;;;9.25;;
6223;SDS011;3145;42.726;23.342;2022-07-25T05:55:29;8.75;;;7.97;;
6223;SDS011;3145;42.726;23.342;2022-07-25T05:57:56;10.50;;;8.05;;
6223;SDS011;3145;42.726;23.342;2022-07-25T06:00:23;8.95;;;8.15;;
6223;SDS011;3145;42.726;23.342;2022-07-25T06:02:50;12.07;;;7.75;;
6223;SDS011;3145;42.726;23.342;2022-07-25T06:05:17;13.80;;;7.93;;
6223;SDS011;3145;42.726;23.342;2022-07-25T06:07:43;10.23;;;8.13;;
6223;SDS011;3145;42.726;23.342;2022-07-25T06:10:10;11.02;;;7.75;;
6223;SDS011;3145;42.726;23.342;2022-07-25T06:12:38;9.13;;;7.20;;
6223;SDS011;3145;42.726;23.342;2022-07-25T06:15:05;9.10;;;8.25;;
6223;SDS011;3145;42.726;23.342;2022-07-25T06:17:33;9.75;;;8.82;;
6223;SDS011;3145;42.726;23.342;2022-07-25T06:20:00;11.25;;;7.82;;
6223;SDS011;3145;42.726;23.342;2022-07-25T06:22:29;10.95;;;7.28;;
6223;SDS011;3145;42.726;23.342;2022-07-25T06:24:56;8.00;;;7.30;;
6223;SDS011;3145;42.726;23.342;2022-07-25T06:27:23;9.23;;;7.68;;
6223;SDS011;3145;42.726;23.342;2022-07-25T06:29:51;7.82;;;6.95;;
6223;SDS011;3145;42.726;23.342;2022-07-25T06:32:17;7.50;;;6.90;;
6223;SDS011;3145;42.726;23.342;2022-07-25T06:34:44;7.63;;;7.03;;
6223;SDS011;3145;42.726;23.342;2022-07-25T06:37:11;7.95;;;7.05;;
6223;SDS011;3145;42.726;23.342;2022-07-25T06:39:38;10.48;;;6.85;;
6223;SDS011;3145;42.726;23.342;2022-07-25T06:42:05;8.10;;;7.30;;
6223;SDS011;3145;42.726;23.342;2022-07-25T06:44:32;11.02;;;8.73;;
6223;SDS011;3145;42.726;23.342;2022-07-25T06:47:01;10.05;;;8.63;;
6223;SDS011;3145;42.726;23.342;2022-07-25T06:49:29;14.52;;;9.63;;
6223;SDS011;3145;42.726;23.342;2022-07-25T06:51:56;15.43;;;11.35;;
6223;SDS011;3145;42.726;23.342;2022-07-25T06:54:23;19.80;;;13.35;;
6223;SDS011;3145;42.726;23.342;2022-07-25T06:56:50;11.27;;;10.27;;
6223;SDS011;3145;42.726;23.342;2022-07-25T06:59:16;11.43;;;9.15;;
6223;SDS011;3145;42.726;23.342;2022-07-25T07:01:43;9.32;;;8.48;;
6223;SDS011;3145;42.726;23.342;2022-07-25T07:04:11;7.50;;;6.95;;
6223;SDS011;3145;42.726;23.342;2022-07-25T07:06:38;7.50;;;7.00;;
6223;SDS011;3145;42.726;23.342;2022-07-25T07:09:05;7.53;;;6.93;;
6223;SDS011;3145;42.726;23.342;2022-07-25T07:11:31;8.68;;;7.85;;
6223;SDS011;3145;42.726;23.342;2022-07-25T07:13:59;7.25;;;6.60;;
6223;SDS011;3145;42.726;23.342;2022-07-25T07:16:27;8.02;;;7.28;;
6223;SDS011;3145;42.726;23.342;2022-07-25T07:18:54;8.75;;;7.65;;
6223;SDS011;3145;42.726;23.342;2022-07-25T07:21:22;7.53;;;6.25;;
6223;SDS011;3145;42.726;23.342;2022-07-25T07:23:49;8.80;;;7.03;;
6223;SDS011;3145;42.726;23.342;2022-07-25T07:26:16;7.10;;;6.60;;
6223;SDS011;3145;42.726;23.342;2022-07-25T07:28:43;10.38;;;6.35;;
6223;SDS011;3145;42.726;23.342;2022-07-25T07:31:10;7.68;;;6.97;;
6223;SDS011;3145;42.726;23.342;2022-07-25T07:33:37;10.93;;;7.00;;
6223;SDS011;3145;42.726;23.342;2022-07-25T07:36:03;8.40;;;7.07;;
6223;SDS011;3145;42.726;23.342;2022-07-25T07:38:32;6.63;;;6.13;;
6223;SDS011;3145;42.726;23.342;2022-07-25T07:40:58;6.38;;;5.93;;
6223;SDS011;3145;42.726;23.342;2022-07-25T07:43:25;7.90;;;7.20;;
6223;SDS011;3145;42.726;23.342;2022-07-25T07:45:54;7.55;;;6.68;;
6223;SDS011;3145;42.726;23.342;2022-07-25T07:48:23;7.15;;;6.45;;
6223;SDS011;3145;42.726;23.342;2022-07-25T07:50:49;6.97;;;6.55;;
6223;SDS011;3145;42.726;23.342;2022-07-25T07:53:16;9.73;;;7.35;;
6223;SDS011;3145;42.726;23.342;2022-07-25T07:55:44;7.95;;;7.45;;
6223;SDS011;3145;42.726;23.342;2022-07-25T07:58:13;6.68;;;6.28;;
6223;SDS011;3145;42.726;23.342;2022-07-25T08:00:41;7.78;;;6.72;;
6223;SDS011;3145;42.726;23.342;2022-07-25T08:03:09;7.63;;;6.90;;
6223;SDS011;3145;42.726;23.342;2022-07-25T08:05:37;7.00;;;6.40;;
6223;SDS011;3145;42.726;23.342;2022-07-25T08:08:05;7.22;;;6.53;;
6223;SDS011;3145;42.726;23.342;2022-07-25T08:10:34;7.10;;;6.38;;
6223;SDS011;3145;42.726;23.342;2022-07-25T08:13:11;7.15;;;6.53;;
6223;SDS011;3145;42.726;23.342;2022-07-25T08:15:39;7.05;;;6.38;;
6223;SDS011;3145;42.726;23.342;2022-07-25T08:18:07;7.47;;;6.80;;
6223;SDS011;3145;42.726;23.342;2022-07-25T08:20:34;7.15;;;6.65;;
6223;SDS011;3145;42.726;23.342;2022-07-25T08:23:01;7.38;;;6.85;;
6223;SDS011;3145;42.726;23.342;2022-07-25T08:25:28;7.97;;;7.38;;
6223;SDS011;3145;42.726;23.342;2022-07-25T08:27:55;7.88;;;7.28;;
6223;SDS011;3145;42.726;23.342;2022-07-25T08:30:24;7.45;;;6.85;;
6223;SDS011;3145;42.726;23.342;2022-07-25T08:32:51;7.20;;;6.70;;
6223;SDS011;3145;42.726;23.342;2022-07-25T08:35:20;7.63;;;6.78;;
6223;SDS011;3145;42.726;23.342;2022-07-25T08:37:48;7.35;;;6.75;;
6223;SDS011;3145;42.726;23.342;2022-07-25T08:40:15;7.78;;;7.18;;
6223;SDS011;3145;42.726;23.342;2022-07-25T08:42:44;8.73;;;7.68;;
6223;SDS011;3145;42.726;23.342;2022-07-25T08:45:11;7.18;;;6.60;;
6223;SDS011;3145;42.726;23.342;2022-07-25T08:47:41;7.32;;;6.55;;
6223;SDS011;3145;42.726;23.342;2022-07-25T08:50:09;7.40;;;6.72;;
6223;SDS011;3145;42.726;23.342;2022-07-25T08:52:38;8.93;;;6.93;;
6223;SDS011;3145;42.726;23.342;2022-07-25T08:55:05;6.80;;;6.30;;
6223;SDS011;3145;42.726;23.342;2022-07-25T08:57:35;7.47;;;6.97;;
6223;SDS011;3145;42.726;23.342;2022-07-25T09:00:06;7.63;;;6.85;;
6223;SDS011;3145;42.726;23.342;2022-07-25T09:02:33;7.60;;;6.85;;
6223;SDS011;3145;42.726;23.342;2022-07-25T09:05:01;7.20;;;6.53;;
6223;SDS011;3145;42.726;23.342;2022-07-25T09:07:29;7.50;;;6.40;;
6223;SDS011;3145;42.726;23.342;2022-07-25T09:09:57;7.47;;;6.88;;
6223;SDS011;3145;42.726;23.342;2022-07-25T09:12:25;8.20;;;7.07;;
6223;SDS011;3145;42.726;23.342;2022-07-25T09:14:52;7.25;;;6.65;;
6223;SDS011;3145;42.726;23.342;2022-07-25T09:17:19;7.13;;;6.43;;
6223;SDS011;3145;42.726;23.342;2022-07-25T09:19:50;7.05;;;6.40;;
6223;SDS011;3145;42.726;23.342;2022-07-25T09:22:19;6.95;;;6.45;;
6223;SDS011;3145;42.726;23.342;2022-07-25T09:24:46;7.03;;;6.43;;
6223;SDS011;3145;42.726;23.342;2022-07-25T09:27:13;6.55;;;6.07;;
6223;SDS011;3145;42.726;23.342;2022-07-25T09:29:41;6.63;;;6.13;;
6223;SDS011;3145;42.726;23.342;2022-07-25T09:32:14;7.22;;;6.63;;
6223;SDS011;3145;42.726;23.342;2022-07-25T09:34:43;7.47;;;6.60;;
6223;SDS011;3145;42.726;23.342;2022-07-25T09:37:11;6.88;;;6.25;;
6223;SDS011;3145;42.726;23.342;2022-07-25T09:39:43;6.65;;;6.20;;
6223;SDS011;3145;42.726;23.342;2022-07-25T09:42:20;6.57;;;6.10;;
6223;SDS011;3145;42.726;23.342;2022-07-25T09:44:59;7.10;;;6.60;;
6223;SDS011;3145;42.726;23.342;2022-07-25T09:47:27;6.95;;;6.28;;
6223;SDS011;3145;42.726;23.342;2022-07-25T09:49:54;6.60;;;6.13;;
6223;SDS011;3145;42.726;23.342;2022-07-25T09:52:22;5.53;;;5.22;;
6223;SDS011;3145;42.726;23.342;2022-07-25T09:54:50;5.60;;;5.20;;
6223;SDS011;3145;42.726;23.342;2022-07-25T09:57:18;5.70;;;5.40;;
6223;SDS011;3145;42.726;23.342;2022-07-25T09:59:45;5.93;;;5.63;;
6223;SDS011;3145;42.726;23.342;2022-07-25T10:02:14;6.53;;;5.93;;
6223;SDS011;3145;42.726;23.342;2022-07-25T10:04:51;6.57;;;6.05;;
6223;SDS011;3145;42.726;23.342;2022-07-25T10:07:28;5.72;;;5.28;;
6223;SDS011;3145;42.726;23.342;2022-07-25T10:09:58;6.65;;;6.00;;
6223;SDS011;3145;42.726;23.342;2022-07-25T10:12:25;7.47;;;6.60;;
6223;SDS011;3145;42.726;23.342;2022-07-25T10:15:05;7.03;;;6.35;;
6223;SDS011;3145;42.726;23.342;2022-07-25T10:17:34;6.22;;;5.82;;
6223;SDS011;3145;42.726;23.342;2022-07-25T10:20:03;5.70;;;5.30;;
6223;SDS011;3145;42.726;23.342;2022-07-25T10:22:35;6.03;;;5.53;;
6223;SDS011;3145;42.726;23.342;2022-07-25T10:25:10;5.80;;;5.40;;
6223;SDS011;3145;42.726;23.342;2022-07-25T10:27:40;5.80;;;5.43;;
6223;SDS011;3145;42.726;23.342;2022-07-25T10:30:09;5.85;;;5.45;;
6223;SDS011;3145;42.726;23.342;2022-07-25T10:32:47;6.05;;;5.07;;
6223;SDS011;3145;42.726;23.342;2022-07-25T10:35:15;6.40;;;5.68;;
6223;SDS011;3145;42.726;23.342;2022-07-25T10:37:43;5.57;;;5.15;;
6223;SDS011;3145;42.726;23.342;2022-07-25T10:40:12;5.25;;;4.85;;
6223;SDS011;3145;42.726;23.342;2022-07-25T10:42:54;5.40;;;5.00;;
6223;SDS011;3145;42.726;23.342;2022-07-25T10:45:25;6.30;;;4.80;;
6223;SDS011;3145;42.726;23.342;2022-07-25T10:48:05;5.82;;;5.32;;
6223;SDS011;3145;42.726;23.342;2022-07-25T10:50:32;5.78;;;5.40;;
6223;SDS011;3145;42.726;23.342;2022-07-25T10:52:59;5.43;;;4.95;;
6223;SDS011;3145;42.726;23.342;2022-07-25T10:55:33;5.38;;;4.97;;
6223;SDS011;3145;42.726;23.342;2022-07-25T10:58:01;5.55;;;4.80;;
6223;SDS011;3145;42.726;23.342;2022-07-25T11:00:30;6.05;;;5.43;;
6223;SDS011;3145;42.726;23.342;2022-07-25T11:02:57;5.88;;;5.32;;
6223;SDS011;3145;42.726;23.342;2022-07-25T11:05:24;5.35;;;5.05;;
6223;SDS011;3145;42.726;23.342;2022-07-25T11:07:54;5.22;;;4.82;;
6223;SDS011;3145;42.726;23.342;2022-07-25T11:10:23;5.80;;;5.40;;
6223;SDS011;3145;42.726;23.342;2022-07-25T11:12:52;5.80;;;5.40;;
6223;SDS011;3145;42.726;23.342;2022-07-25T11:15:20;5.32;;;4.97;;
6223;SDS011;3145;42.726;23.342;2022-07-25T11:17:48;5.55;;;5.15;;
6223;SDS011;3145;42.726;23.342;2022-07-25T11:20:16;5.88;;;5.43;;
6223;SDS011;3145;42.726;23.342;2022-07-25T11:22:49;6.28;;;5.53;;
6223;SDS011;3145;42.726;23.342;2022-07-25T11:25:19;5.78;;;5.28;;
6223;SDS011;3145;42.726;23.342;2022-07-25T11:27:48;6.07;;;5.50;;
6223;SDS011;3145;42.726;23.342;2022-07-25T11:30:22;5.68;;;4.70;;
6223;SDS011;3145;42.726;23.342;2022-07-25T11:32:50;5.40;;;4.90;;
6223;SDS011;3145;42.726;23.342;2022-07-25T11:35:19;5.60;;;5.10;;
6223;SDS011;3145;42.726;23.342;2022-07-25T11:37:47;5.35;;;4.95;;
6223;SDS011;3145;42.726;23.342;2022-07-25T11:40:16;6.55;;;5.30;;
6223;SDS011;3145;42.726;23.342;2022-07-25T11:42:45;5.28;;;4.88;;
6223;SDS011;3145;42.726;23.342;2022-07-25T11:45:16;6.20;;;5.60;;
6223;SDS011;3145;42.726;23.342;2022-07-25T11:47:45;5.28;;;4.97;;
6223;SDS011;3145;42.726;23.342;2022-07-25T11:50:13;6.40;;;5.80;;
6223;SDS011;3145;42.726;23.342;2022-07-25T11:52:40;9.38;;;7.30;;
6223;SDS011;3145;42.726;23.342;2022-07-25T11:55:08;5.47;;;5.13;;
6223;SDS011;3145;42.726;23.342;2022-07-25T11:57:37;6.88;;;5.07;;
6223;SDS011;3145;42.726;23.342;2022-07-25T12:00:07;5.85;;;5.45;;
6223;SDS011;3145;42.726;23.342;2022-07-25T12:02:36;5.35;;;4.82;;
6223;SDS011;3145;42.726;23.342;2022-07-25T12:05:05;5.85;;;5.45;;
6223;SDS011;3145;42.726;23.342;2022-07-25T12:07:37;5.13;;;4.72;;
6223;SDS011;3145;42.726;23.342;2022-07-25T12:10:06;5.90;;;5.20;;
6223;SDS011;3145;42.726;23.342;2022-07-25T12:12:41;6.38;;;5.22;;
6223;SDS011;3145;42.726;23.342;2022-07-25T12:15:16;5.63;;;5.22;;
6223;SDS011;3145;42.726;23.342;2022-07-25T12:17:45;6.88;;;5.75;;
6223;SDS011;3145;42.726;23.342;2022-07-25T12:20:17;5.85;;;5.43;;
6223;SDS011;3145;42.726;23.342;2022-07-25T12:22:45;5.63;;;5.15;;
6223;SDS011;3145;42.726;23.342;2022-07-25T12:25:13;5.50;;;5.18;;
6223;SDS011;3145;42.726;23.342;2022-07-25T12:27:40;10.20;;;5.80;;
6223;SDS011;3145;42.726;23.342;2022-07-25T12:30:08;5.90;;;5.30;;
6223;SDS011;3145;42.726;23.342;2022-07-25T12:32:36;5.93;;;5.43;;
6223;SDS011;3145;42.726;23.342;2022-07-25T12:35:04;5.72;;;5.25;;
6223;SDS011;3145;42.726;23.342;2022-07-25T12:37:34;5.18;;;4.63;;
6223;SDS011;3145;42.726;23.342;2022-07-25T12:40:01;5.30;;;4.90;;
6223;SDS011;3145;42.726;23.342;2022-07-25T12:42:29;5.40;;;4.93;;
6223;SDS011;3145;42.726;23.342;2022-07-25T12:44:56;9.48;;;5.10;;
6223;SDS011;3145;42.726;23.342;2022-07-25T12:47:23;5.95;;;5.20;;
6223;SDS011;3145;42.726;23.342;2022-07-25T12:49:52;5.28;;;4.88;;
6223;SDS011;3145;42.726;23.342;2022-07-25T12:52:19;4.97;;;4.57;;
6223;SDS011;3145;42.726;23.342;2022-07-25T12:54:47;5.13;;;4.82;;
6223;SDS011;3145;42.726;23.342;2022-07-25T12:57:14;6.38;;;4.65;;
6223;SDS011;3145;42.726;23.342;2022-07-25T12:59:41;9.05;;;4.55;;
6223;SDS011;3145;42.726;23.342;2022-07-25T13:02:08;4.80;;;4.30;;
6223;SDS011;3145;42.726;23.342;2022-07-25T13:04:34;5.28;;;4.72;;
6223;SDS011;3145;42.726;23.342;2022-07-25T13:07:01;5.93;;;4.45;;
6223;SDS011;3145;42.726;23.342;2022-07-25T13:09:28;5.07;;;4.20;;
6223;SDS011;3145;42.726;23.342;2022-07-25T13:11:56;5.60;;;5.10;;
6223;SDS011;3145;42.726;23.342;2022-07-25T13:14:23;5.60;;;5.20;;
6223;SDS011;3145;42.726;23.342;2022-07-25T13:16:51;5.95;;;5.38;;
6223;SDS011;3145;42.726;23.342;2022-07-25T13:19:17;5.20;;;4.80;;
6223;SDS011;3145;42.726;23.342;2022-07-25T13:21:44;5.38;;;4.85;;
6223;SDS011;3145;42.726;23.342;2022-07-25T13:24:11;4.80;;;4.50;;
6223;SDS011;3145;42.726;23.342;2022-07-25T13:26:38;8.05;;;4.75;;
6223;SDS011;3145;42.726;23.342;2022-07-25T13:29:06;9.07;;;5.50;;
6223;SDS011;3145;42.726;23.342;2022-07-25T13:31:35;5.82;;;5.00;;
6223;SDS011;3145;42.726;23.342;2022-07-25T13:34:02;5.55;;;4.72;;
6223;SDS011;3145;42.726;23.342;2022-07-25T13:36:30;5.10;;;4.70;;
6223;SDS011;3145;42.726;23.342;2022-07-25T13:38:57;5.35;;;4.90;;
6223;SDS011;3145;42.726;23.342;2022-07-25T13:41:24;4.53;;;4.20;;
6223;SDS011;3145;42.726;23.342;2022-07-25T13:43:51;5.05;;;4.60;;
6223;SDS011;3145;42.726;23.342;2022-07-25T13:46:19;5.07;;;4.53;;
6223;SDS011;3145;42.726;23.342;2022-07-25T13:48:46;5.35;;;4.95;;
6223;SDS011;3145;42.726;23.342;2022-07-25T13:51:13;5.25;;;4.78;;
6223;SDS011;3145;42.726;23.342;2022-07-25T13:53:40;4.68;;;4.38;;
6223;SDS011;3145;42.726;23.342;2022-07-25T13:56:09;4.80;;;4.50;;
6223;SDS011;3145;42.726;23.342;2022-07-25T13:58:37;4.88;;;4.28;;
6223;SDS011;3145;42.726;23.342;2022-07-25T14:01:04;4.90;;;4.50;;
6223;SDS011;3145;42.726;23.342;2022-07-25T14:03:33;4.57;;;4.28;;
6223;SDS011;3145;42.726;23.342;2022-07-25T14:06:01;5.38;;;4.75;;
6223;SDS011;3145;42.726;23.342;2022-07-25T14:08:28;5.28;;;4.93;;
6223;SDS011;3145;42.726;23.342;2022-07-25T14:10:54;5.20;;;4.80;;
6223;SDS011;3145;42.726;23.342;2022-07-25T14:13:21;4.82;;;4.47;;
6223;SDS011;3145;42.726;23.342;2022-07-25T14:15:48;4.68;;;4.38;;
6223;SDS011;3145;42.726;23.342;2022-07-25T14:18:15;4.88;;;4.47;;
6223;SDS011;3145;42.726;23.342;2022-07-25T14:20:43;5.13;;;4.82;;
6223;SDS011;3145;42.726;23.342;2022-07-25T14:23:10;5.18;;;4.70;;
6223;SDS011;3145;42.726;23.342;2022-07-25T14:25:37;5.50;;;5.10;;
6223;SDS011;3145;42.726;23.342;2022-07-25T14:28:04;6.03;;;5.63;;
6223;SDS011;3145;42.726;23.342;2022-07-25T14:30:31;6.13;;;5.63;;
6223;SDS011;3145;42.726;23.342;2022-07-25T14:32:57;5.15;;;4.70;;
6223;SDS011;3145;42.726;23.342;2022-07-25T14:35:24;4.93;;;4.57;;
6223;SDS011;3145;42.726;23.342;2022-07-25T14:37:52;5.60;;;5.15;;
6223;SDS011;3145;42.726;23.342;2022-07-25T14:40:19;5.32;;;4.93;;
6223;SDS011;3145;42.726;23.342;2022-07-25T14:42:46;8.55;;;5.00;;
6223;SDS011;3145;42.726;23.342;2022-07-25T14:45:13;7.32;;;5.38;;
6223;SDS011;3145;42.726;23.342;2022-07-25T14:47:40;6.25;;;5.75;;
6223;SDS011;3145;42.726;23.342;2022-07-25T14:50:07;7.57;;;6.78;;
6223;SDS011;3145;42.726;23.342;2022-07-25T14:52:35;7.13;;;6.63;;
6223;SDS011;3145;42.726;23.342;2022-07-25T14:55:03;7.60;;;6.70;;
6223;SDS011;3145;42.726;23.342;2022-07-25T14:57:30;7.20;;;6.63;;